Time;durP1;ratioP1;P1;durP2;ratioP2;P2;SDS_P1;SDS_P2;PMS_P1;PMS_P2;Temp;Humidity;BMP_temperature;BMP_pressure;BME280_temperature;BME280_humidity;BME280_pressure;Samples;Min_cycle;Max_cycle;Signal;HPM_P1;HPM_P2
2021/12/08 00:00:53;;;;;;;1.80;1.70;;;3.00;98.50;;;2.72;71.74;93970.88;5069089;28;20971;-57
2021/12/08 00:03:21;;;;;;;1.80;1.70;;;3.00;98.40;;;2.74;71.36;93968.16;5064861;28;20451;-57
2021/12/08 00:05:48;;;;;;;2.00;1.90;;;3.00;98.40;;;2.77;71.89;93970.53;5068779;28;20483;-57
2021/12/08 00:08:17;;;;;;;1.70;1.60;;;3.00;98.30;;;2.77;71.41;93978.31;5070074;28;20447;-58
2021/12/08 00:13:01;;;;;;;1.63;1.53;;;3.10;98.30;;;2.77;71.44;93981.72;5069077;28;20467;-56
2021/12/08 00:13:40;;;;;;;1.87;1.77;;;3.00;98.20;;;2.76;71.61;93987.88;5068106;28;20447;-57
2021/12/08 00:16:11;;;;;;;2.00;1.90;;;3.00;98.20;;;2.77;71.81;93986.09;5065407;28;20491;-56
2021/12/08 00:18:44;;;;;;;6.40;1.50;;;3.00;98.20;;;2.76;71.32;93990.50;5066644;28;20454;-57
2021/12/08 00:21:11;;;;;;;1.80;1.70;;;3.00;98.10;;;2.78;70.41;93985.19;5068943;28;20990;-57
2021/12/08 00:23:39;;;;;;;2.17;2.07;;;3.10;98.20;;;2.77;70.83;93989.53;5070052;28;20477;-57
2021/12/08 00:26:06;;;;;;;2.00;1.90;;;3.00;98.10;;;2.78;70.56;93998.16;5070234;28;20475;-57
2021/12/08 00:28:33;;;;;;;2.50;2.30;;;3.00;98.10;;;2.77;71.02;94001.69;5069698;28;20517;-58
2021/12/08 00:31:04;;;;;;;2.20;2.10;;;3.10;98.00;;;2.75;70.67;94007.00;5070230;28;20841;-61
2021/12/08 00:33:31;;;;;;;2.00;1.90;;;3.00;97.90;;;2.77;70.47;94006.88;5070331;28;20955;-57
2021/12/08 00:36:01;;;;;;;1.70;1.60;;;3.10;98.00;;;2.77;70.29;94006.88;5069303;28;20579;-57
2021/12/08 00:38:28;;;;;;;2.00;1.90;;;3.10;98.00;;;2.76;70.32;94000.03;5070314;28;20836;-58
2021/12/08 00:40:55;;;;;;;3.03;2.83;;;3.00;98.00;;;2.76;71.00;94011.25;5069960;28;20473;-57
2021/12/08 00:43:23;;;;;;;1.73;1.63;;;3.00;97.90;;;2.75;70.86;94017.38;5069695;28;20871;-57
2021/12/08 00:45:50;;;;;;;2.70;2.60;;;3.00;97.80;;;2.73;70.65;94019.28;5070034;28;20549;-57
2021/12/08 00:48:19;;;;;;;3.53;2.33;;;3.00;97.80;;;2.72;71.13;94015.00;5070303;28;20451;-57
2021/12/08 00:50:46;;;;;;;3.23;3.03;;;3.00;97.80;;;2.71;70.83;94023.72;5069435;28;20471;-56
2021/12/08 00:53:13;;;;;;;3.20;2.60;;;3.00;97.80;;;2.71;70.48;94023.72;5070056;28;20455;-56
2021/12/08 00:55:41;;;;;;;3.07;2.40;;;3.00;97.90;;;2.71;71.29;94023.72;5068455;28;20466;-57
2021/12/08 00:58:08;;;;;;;2.20;2.00;;;3.00;97.90;;;2.72;71.00;94024.59;5070196;28;20501;-57
2021/12/08 01:00:39;;;;;;;3.30;2.20;;;3.00;98.00;;;2.73;70.66;94018.44;5069726;28;20479;-57
2021/12/08 01:03:06;;;;;;;2.87;2.67;;;3.00;98.00;;;2.73;70.38;94021.88;5069644;28;20588;-57
2021/12/08 01:05:39;;;;;;;2.90;2.50;;;3.00;97.90;;;2.74;70.30;94038.28;5068934;28;20524;-56
2021/12/08 01:08:06;;;;;;;2.97;2.77;;;3.00;97.80;;;2.73;70.40;94029.66;5069546;28;20450;-56
2021/12/08 01:10:34;;;;;;;2.60;2.50;;;3.00;97.70;;;2.74;70.13;94028.69;5069387;28;20475;-57
2021/12/08 01:13:01;;;;;;;3.07;2.87;;;3.00;97.80;;;2.75;69.94;94035.56;5066339;28;20525;-58
2021/12/08 01:15:29;;;;;;;2.07;1.97;;;3.00;97.70;;;2.75;70.01;94030.38;5069412;28;20505;-58
2021/12/08 01:17:56;;;;;;;4.90;3.00;;;3.00;97.60;;;2.75;70.51;94035.56;5067454;28;20975;-56
2021/12/08 01:20:24;;;;;;;2.90;2.70;;;3.00;97.60;;;2.75;70.46;94035.56;5069533;28;20450;-57
2021/12/08 01:22:52;;;;;;;3.00;2.70;;;3.00;97.50;;;2.75;70.32;94025.16;5069241;28;20450;-56
2021/12/08 01:25:20;;;;;;;3.37;3.17;;;3.00;97.70;;;2.75;71.14;94025.16;5068880;28;20446;-57
2021/12/08 01:27:47;;;;;;;3.10;2.83;;;3.00;97.70;;;2.75;70.23;94030.38;5068430;28;20505;-57
2021/12/08 01:30:14;;;;;;;5.63;3.03;;;3.00;97.30;;;2.74;70.18;94023.50;5069037;28;20451;-58
2021/12/08 01:32:41;;;;;;;3.80;3.50;;;3.00;97.70;;;2.73;69.99;94029.66;5069106;28;20455;-57
2021/12/08 01:35:10;;;;;;;3.30;3.10;;;3.00;97.70;;;2.75;70.58;94030.38;5069402;28;20455;-56
2021/12/08 01:37:37;;;;;;;5.17;4.10;;;3.00;97.80;;;2.74;70.85;94031.28;5068940;28;20490;-57
2021/12/08 01:40:08;;;;;;;4.00;3.60;;;3.00;97.60;;;2.75;70.06;94030.38;5069193;28;20462;-56
2021/12/08 01:42:42;;;;;;;3.60;3.40;;;3.00;97.60;;;2.74;70.08;94027.88;5068065;28;20569;-61
2021/12/08 01:48:10;;;;;;;5.07;4.30;;;3.00;97.50;;;2.73;70.53;94029.66;4985691;28;20860;-57
2021/12/08 01:50:38;;;;;;;6.43;4.70;;;3.00;97.90;;;2.70;69.65;94035.06;4984542;28;20478;-56
2021/12/08 01:53:05;;;;;;;6.40;4.80;;;3.00;97.20;;;2.68;69.92;94032.59;5020492;28;20455;-56
2021/12/08 01:55:34;;;;;;;5.13;4.40;;;3.00;97.20;;;2.68;69.76;94036.94;5068986;28;20898;-55
2021/12/08 01:58:01;;;;;;;6.10;4.77;;;3.00;97.50;;;2.68;69.87;94042.13;5067466;28;20487;-57
2021/12/08 02:00:31;;;;;;;6.50;4.50;;;3.00;97.90;;;2.66;70.21;94042.25;5069353;28;20467;-57
2021/12/08 02:02:58;;;;;;;10.60;5.03;;;3.00;97.50;;;2.65;70.45;94044.94;5066912;28;20463;-56
2021/12/08 02:05:26;;;;;;;6.00;4.50;;;2.90;97.20;;;2.64;69.84;94048.50;5068427;28;20513;-58
2021/12/08 02:07:53;;;;;;;7.83;5.93;;;2.90;97.10;;;2.62;70.26;94050.41;5067129;28;20967;-58
2021/12/08 02:10:20;;;;;;;7.50;5.33;;;2.90;97.20;;;2.60;70.02;94049.66;5068726;28;20458;-56
2021/12/08 02:12:49;;;;;;;7.37;6.00;;;2.90;97.30;;;2.60;69.40;94050.50;5067844;28;20443;-55
2021/12/08 02:15:17;;;;;;;8.23;6.20;;;2.90;97.20;;;2.58;70.04;94049.78;5067944;28;20443;-57
2021/12/08 02:17:46;;;;;;;7.00;5.77;;;2.90;97.20;;;2.58;69.87;94059.34;5065634;28;20508;-58
2021/12/08 02:20:13;;;;;;;7.40;6.60;;;2.90;97.20;;;2.55;69.70;94064.75;5067790;28;20474;-57
2021/12/08 02:22:42;;;;;;;8.20;6.57;;;2.80;97.20;;;2.54;70.31;94068.28;5068089;28;20450;-57
2021/12/08 02:25:13;;;;;;;8.70;7.10;;;2.80;97.20;;;2.51;69.43;94059.78;5068624;28;20947;-57
2021/12/08 02:27:40;;;;;;;8.83;6.50;;;2.80;97.10;;;2.51;70.25;94069.34;5070959;28;20840;-55
2021/12/08 02:30:15;;;;;;;7.80;6.40;;;2.80;97.10;;;2.48;70.06;94070.38;5072646;28;20997;-56
2021/12/08 02:47:04;;;;;;;11.80;7.87;;;2.80;97.60;;;2.47;69.83;94086.88;5071264;28;20470;-55
2021/12/08 02:49:32;;;;;;;16.30;8.80;;;2.70;97.60;;;2.50;70.18;94086.66;5071340;28;20458;-58
2021/12/08 02:51:59;;;;;;;12.07;8.10;;;2.80;97.70;;;2.50;69.79;94081.47;5071849;28;20474;-57
2021/12/08 02:54:34;;;;;;;13.10;8.77;;;2.80;97.60;;;2.47;69.92;94075.69;5071930;28;20451;-57
2021/12/08 02:57:01;;;;;;;16.70;9.70;;;2.80;97.40;;;2.44;70.81;94084.50;5072251;28;20585;-57
2021/12/08 02:59:28;;;;;;;10.47;7.87;;;2.70;97.60;;;2.44;71.03;94074.13;5071939;28;20455;-57
2021/12/08 03:01:56;;;;;;;16.43;9.07;;;2.70;97.70;;;2.44;70.81;94075.91;5072099;28;20901;-56
2021/12/08 03:04:23;;;;;;;11.27;8.57;;;2.70;97.50;;;2.42;70.92;94078.63;5071587;28;20879;-56
2021/12/08 03:06:51;;;;;;;10.97;8.87;;;2.70;97.60;;;2.40;70.35;94080.50;5072136;28;20943;-56
2021/12/08 03:09:18;;;;;;;11.30;8.50;;;2.70;97.50;;;2.37;70.71;94072.94;5072094;28;20443;-57
2021/12/08 03:11:48;;;;;;;16.93;8.97;;;2.70;97.60;;;2.38;71.38;94084.97;5071124;28;20481;-57
2021/12/08 03:14:16;;;;;;;18.83;11.10;;;2.70;97.90;;;2.38;70.83;94087.53;5068432;28;20803;-56
2021/12/08 03:16:45;;;;;;;12.20;8.73;;;2.70;97.80;;;2.38;70.33;94084.13;5071028;28;20486;-58
2021/12/08 03:19:12;;;;;;;16.00;10.10;;;2.70;97.70;;;2.37;70.44;94083.31;5069779;28;20450;-58
2021/12/08 03:21:39;;;;;;;15.37;9.57;;;2.70;97.80;;;2.39;71.13;94081.44;5071163;28;20807;-56
2021/12/08 03:24:20;;;;;;;14.57;9.83;;;2.70;97.90;;;2.43;71.06;94092.41;5071704;28;20454;-57
2021/12/08 03:26:55;;;;;;;13.60;8.83;;;2.70;97.90;;;2.45;71.03;94093.16;5068836;28;20474;-56
2021/12/08 03:29:30;;;;;;;11.97;8.50;;;2.70;97.90;;;2.47;70.11;94096.44;5071825;28;20465;-57
2021/12/08 03:32:05;;;;;;;16.00;9.23;;;2.80;97.90;;;2.47;70.34;94089.47;5069830;28;20481;-57
2021/12/08 03:34:35;;;;;;;16.73;10.60;;;2.80;97.90;;;2.51;70.66;94103.91;5069655;28;20453;-58
2021/12/08 03:37:03;;;;;;;17.83;10.90;;;2.80;97.80;;;2.53;70.75;94102.97;5069422;28;20581;-57
2021/12/08 03:39:30;;;;;;;11.23;8.77;;;2.80;97.80;;;2.52;70.75;94102.13;5071276;28;20955;-58
2021/12/08 03:41:59;;;;;;;16.83;9.40;;;2.80;97.70;;;2.50;70.16;94101.44;5071612;28;20475;-57
2021/12/08 03:44:26;;;;;;;17.83;10.00;;;2.80;97.50;;;2.44;70.31;94110.47;5071196;28;20454;-57
2021/12/08 03:46:56;;;;;;;12.27;9.37;;;2.70;97.60;;;2.44;70.30;94118.25;5071163;28;20965;-57
2021/12/08 03:49:23;;;;;;;16.77;9.67;;;2.70;97.80;;;2.47;70.90;94123.22;5068935;28;20451;-57
2021/12/08 03:51:50;;;;;;;22.10;10.37;;;2.70;97.80;;;2.48;71.47;94122.28;5071117;28;20876;-58
2021/12/08 03:54:18;;;;;;;12.83;9.33;;;2.80;97.90;;;2.53;70.28;94126.34;5071339;28;20877;-57
2021/12/08 03:56:45;;;;;;;14.03;9.83;;;2.80;97.90;;;2.55;70.88;94124.44;5071092;28;20478;-56
2021/12/08 03:59:14;;;;;;;12.27;9.00;;;2.80;97.80;;;2.56;69.96;94133.91;5070933;28;20466;-59
2021/12/08 04:01:41;;;;;;;14.53;9.50;;;2.80;97.70;;;2.55;70.23;94142.63;5068894;28;20474;-56
2021/12/08 04:04:10;;;;;;;15.83;9.83;;;2.80;97.50;;;2.56;70.85;94149.47;5070707;28;20451;-56
2021/12/08 04:06:45;;;;;;;17.97;9.90;;;2.80;97.60;;;2.56;70.94;94144.28;5070579;28;20491;-57
2021/12/08 04:09:24;;;;;;;13.13;9.73;;;2.80;97.70;;;2.57;70.94;94138.13;5071388;28;20485;-56
2021/12/08 04:11:51;;;;;;;16.80;9.40;;;2.90;97.70;;;2.61;70.38;94150.78;5068100;28;20462;-58
2021/12/08 04:14:21;;;;;;;19.80;11.03;;;2.90;97.50;;;2.62;69.63;94147.28;5070255;28;21041;-57
2021/12/08 04:16:51;;;;;;;15.20;8.53;;;2.90;97.50;;;2.63;69.94;94153.28;5070254;28;20490;-58
2021/12/08 04:19:19;;;;;;;15.13;9.10;;;2.90;97.60;;;2.64;70.77;94142.78;5070092;28;20955;-57
2021/12/08 04:21:47;;;;;;;14.20;8.87;;;2.90;97.60;;;2.66;70.00;94145.28;5069775;28;21017;-56
2021/12/08 04:24:15;;;;;;;18.77;9.80;;;2.90;97.60;;;2.67;70.80;94149.53;5070827;28;20512;-57
2021/12/08 04:26:49;;;;;;;15.00;9.50;;;3.00;97.50;;;2.68;69.86;94156.38;5071024;28;20490;-57
2021/12/08 04:29:17;;;;;;;15.67;9.47;;;3.00;97.30;;;2.67;69.56;94162.53;5068945;28;20532;-57
2021/12/08 04:31:47;;;;;;;13.83;8.80;;;3.00;97.20;;;2.66;70.12;94155.66;5069972;28;21005;-56
2021/12/08 04:34:18;;;;;;;14.10;9.53;;;2.90;97.20;;;2.65;70.15;94167.81;5069105;28;20483;-58
2021/12/08 04:36:48;;;;;;;15.73;10.40;;;3.00;97.30;;;2.64;70.52;94173.13;5070629;28;20458;-58
2021/12/08 04:39:21;;;;;;;13.13;8.90;;;2.90;97.20;;;2.63;70.90;94163.66;5070638;28;20955;-57
2021/12/08 04:41:56;;;;;;;11.00;8.00;;;2.90;97.80;;;2.66;72.40;94171.22;5070070;28;21033;-56
2021/12/08 04:44:31;;;;;;;15.23;9.77;;;2.90;99.30;;;2.79;73.05;94176.38;5070471;28;20458;-56
2021/12/08 04:47:19;;;;;;;18.43;10.37;;;3.00;99.70;;;2.87;72.17;94177.50;5071728;28;20470;-56
2021/12/08 04:50:17;;;;;;;21.23;11.50;;;3.10;99.70;;;2.97;74.07;94192.41;5068949;28;20559;-56
2021/12/08 04:52:53;;;;;;;16.70;10.63;;;3.20;99.90;;;3.01;72.00;94186.06;5069170;28;20442;-55
2021/12/08 05:03:52;;;;;;;20.30;11.50;;;3.20;98.00;;;2.91;71.33;94200.63;5068249;28;20482;-56
2021/12/08 05:06:35;;;;;;;22.00;13.30;;;3.20;98.20;;;2.89;70.07;94205.13;5069302;28;20554;-56
2021/12/08 05:09:04;;;;;;;20.03;12.07;;;3.10;98.00;;;2.90;71.54;94215.41;5067985;28;20443;-57
2021/12/08 05:11:33;;;;;;;17.03;11.70;;;3.20;98.30;;;2.90;71.23;94218.00;5069461;28;21021;-56
2021/12/08 05:14:05;;;;;;;15.33;10.93;;;3.20;98.00;;;2.90;71.16;94214.56;5067861;28;20516;-58
2021/12/08 05:16:33;;;;;;;13.13;10.67;;;3.20;98.00;;;2.87;70.87;94219.03;5068422;28;20528;-57
2021/12/08 05:19:05;;;;;;;15.67;10.57;;;3.10;98.00;;;2.89;70.33;94220.72;5065550;28;20483;-56
2021/12/08 05:21:36;;;;;;;17.23;10.27;;;3.10;97.70;;;2.87;69.58;94236.41;5064769;28;21041;-57
2021/12/08 05:24:08;;;;;;;18.50;11.07;;;3.10;97.50;;;2.82;69.53;94231.53;5060765;28;20439;-56
2021/12/08 05:26:40;;;;;;;19.50;12.13;;;3.10;97.30;;;2.79;70.29;94236.09;5066351;28;20489;-57
2021/12/08 05:29:11;;;;;;;17.77;10.80;;;3.10;97.40;;;2.77;70.42;94236.19;5066407;28;20459;-59
2021/12/08 05:31:38;;;;;;;18.73;11.70;;;3.00;97.30;;;2.74;69.85;94239.00;5066240;28;20481;-58
2021/12/08 05:34:07;;;;;;;21.40;11.70;;;3.00;97.40;;;2.73;70.62;94239.97;5068200;28;20455;-58
2021/12/08 05:36:34;;;;;;;18.73;12.60;;;3.00;97.50;;;2.73;70.05;94241.72;5068453;28;20467;-56
2021/12/08 05:39:02;;;;;;;20.17;12.27;;;3.00;97.50;;;2.73;70.63;94245.16;5069376;28;20527;-56
2021/12/08 05:41:32;;;;;;;16.80;11.50;;;3.00;97.50;;;2.75;69.71;94243.28;5066116;28;20528;-56
2021/12/08 05:43:59;;;;;;;22.77;11.70;;;3.00;97.50;;;2.72;69.78;94248.69;5068386;28;20815;-57
2021/12/08 05:46:29;;;;;;;19.07;12.17;;;3.00;97.40;;;2.71;70.52;94257.41;5068995;28;20529;-57
2021/12/08 05:48:56;;;;;;;18.67;11.90;;;3.00;97.40;;;2.69;69.74;94260.09;5069081;28;20462;-58
2021/12/08 05:51:27;;;;;;;22.93;11.43;;;3.00;97.20;;;2.67;69.65;94261.19;5068371;28;20477;-58
2021/12/08 05:53:56;;;;;;;21.33;11.20;;;3.00;97.30;;;2.63;69.41;94262.31;5068069;28;20805;-59
2021/12/08 05:56:24;;;;;;;23.53;11.47;;;2.90;97.20;;;2.62;70.02;94264.09;5068375;28;20479;-57
2021/12/08 05:58:53;;;;;;;20.27;10.97;;;2.90;97.30;;;2.61;70.53;94266.78;5067532;28;20868;-59
2021/12/08 06:01:23;;;;;;;18.07;11.17;;;2.90;97.40;;;2.60;69.40;94263.38;5066315;28;20466;-57
2021/12/08 06:03:52;;;;;;;20.97;12.27;;;2.90;97.50;;;2.59;70.15;94268.69;5064077;28;20993;-56
2021/12/08 06:06:21;;;;;;;25.57;11.87;;;2.90;97.30;;;2.57;70.05;94278.31;5067429;28;20553;-57
2021/12/08 06:08:49;;;;;;;17.50;10.67;;;2.90;97.20;;;2.52;69.67;94281.22;5068751;28;20455;-56
2021/12/08 06:11:17;;;;;;;20.07;11.67;;;2.80;97.20;;;2.50;70.77;94285.72;5067420;28;20497;-57
2021/12/08 06:13:45;;;;;;;16.13;11.33;;;2.80;97.30;;;2.47;69.30;94288.50;5067109;28;20986;-58
2021/12/08 06:16:13;;;;;;;17.23;10.80;;;2.80;97.20;;;2.41;69.34;94297.53;5066769;28;20471;-56
2021/12/08 06:18:40;;;;;;;19.43;11.13;;;2.70;97.40;;;2.39;70.43;94303.78;5068529;28;20501;-58
2021/12/08 06:21:10;;;;;;;20.27;10.80;;;2.70;97.40;;;2.38;69.66;94302.94;5067559;28;20478;-58
2021/12/08 06:23:38;;;;;;;20.43;11.40;;;2.70;97.40;;;2.37;69.67;94308.22;5068578;28;20455;-58
2021/12/08 06:26:06;;;;;;;22.40;12.93;;;2.70;97.50;;;2.36;70.80;94307.41;5066882;28;21104;-58
2021/12/08 06:28:34;;;;;;;14.20;9.70;;;2.70;97.50;;;2.39;70.01;94312.41;5066231;28;21001;-57
2021/12/08 06:31:01;;;;;;;19.37;10.67;;;2.70;97.60;;;2.40;70.08;94311.47;5066570;28;20467;-59
2021/12/08 06:33:30;;;;;;;17.10;10.60;;;2.70;97.50;;;2.39;69.64;94312.41;5065058;28;20571;-58
2021/12/08 06:36:01;;;;;;;16.80;10.67;;;2.70;97.40;;;2.39;70.08;94309.78;5067758;28;20470;-57
2021/12/08 06:38:28;;;;;;;19.10;11.60;;;2.70;97.40;;;2.41;69.52;94318.31;5064559;28;20642;-59
2021/12/08 06:41:00;;;;;;;15.03;9.40;;;2.70;97.50;;;2.44;69.62;94323.28;5068500;28;20478;-60
2021/12/08 06:43:31;;;;;;;17.23;11.20;;;2.70;97.50;;;2.44;70.63;94315.50;5068052;28;20458;-58
2021/12/08 06:45:59;;;;;;;20.17;11.00;;;2.70;97.40;;;2.48;70.53;94314.38;5066858;28;20532;-57
2021/12/08 06:48:30;;;;;;;21.30;11.60;;;2.80;97.50;;;2.49;70.50;94316.03;5067569;28;20905;-56
2021/12/08 06:51:05;;;;;;;18.83;10.60;;;2.80;97.50;;;2.53;70.44;94321.03;5066767;28;20815;-58
2021/12/08 06:53:33;;;;;;;16.30;9.37;;;2.80;97.50;;;2.55;70.06;94313.94;5067073;28;20519;-57
2021/12/08 06:56:03;;;;;;;14.17;10.10;;;2.80;97.40;;;2.58;69.87;94308.53;5066158;28;20471;-57
2021/12/08 06:58:34;;;;;;;21.80;10.40;;;2.80;97.40;;;2.62;70.51;94312.59;5067977;28;20490;-57
2021/12/08 07:01:15;;;;;;;16.57;10.93;;;2.90;97.50;;;2.63;70.52;94306.44;5065769;28;20844;-59
2021/12/08 07:03:52;;;;;;;12.67;10.17;;;2.90;97.40;;;2.65;70.11;94315.81;5065926;28;20457;-58
2021/12/08 07:06:43;;;;;;;15.37;9.90;;;2.90;97.30;;;2.68;69.93;94315.59;5065366;28;20503;-57
2021/12/08 07:09:13;;;;;;;23.40;11.10;;;3.00;97.10;;;2.69;69.70;94313.81;5067905;28;20526;-58
2021/12/08 07:11:40;;;;;;;21.83;9.13;;;3.00;97.20;;;2.71;69.89;94316.31;5068115;28;20470;-58
2021/12/08 07:14:10;;;;;;;16.97;10.03;;;3.00;97.10;;;2.72;69.48;94315.38;5067649;28;20963;-60
2021/12/08 07:16:49;;;;;;;14.50;9.20;;;3.00;97.00;;;2.70;69.34;94318.09;5071875;28;20477;-59
2021/12/08 07:19:27;;;;;;;14.53;8.50;;;3.00;96.90;;;2.66;68.50;94316.63;5072018;28;20467;-59
2021/12/08 07:21:55;;;;;;;10.13;7.53;;;2.90;96.50;;;2.57;68.92;94320.69;5070061;28;20530;-58
2021/12/08 07:24:25;;;;;;;16.53;9.00;;;2.90;96.60;;;2.46;69.46;94337.00;5067909;28;20576;-58
2021/12/08 07:26:57;;;;;;;14.90;9.30;;;2.80;96.40;;;2.40;68.60;94336.56;5068564;28;20481;-56
2021/12/08 07:29:30;;;;;;;16.73;10.60;;;2.70;96.50;;;2.35;69.47;94333.47;5070871;28;21380;-58
2021/12/08 07:32:00;;;;;;;16.73;10.13;;;2.60;96.60;;;2.35;69.79;94333.47;5069745;28;20516;-58
2021/12/08 07:34:27;;;;;;;14.50;10.50;;;2.60;96.90;;;2.36;70.10;94335.97;5071759;28;20451;-57
2021/12/08 07:36:59;;;;;;;13.17;9.37;;;2.70;96.90;;;2.34;70.05;94343.03;5071368;28;20477;-59
2021/12/08 07:39:30;;;;;;;17.30;9.10;;;2.60;96.90;;;2.34;68.77;94345.63;5071612;28;20573;-57
2021/12/08 07:42:00;;;;;;;14.43;9.90;;;2.60;96.90;;;2.35;69.16;94351.63;5070995;28;20467;-57
2021/12/08 07:44:29;;;;;;;17.10;10.20;;;2.60;96.90;;;2.38;69.75;94349.66;5068385;28;20990;-57
2021/12/08 07:46:58;;;;;;;15.17;9.23;;;2.70;97.00;;;2.42;69.18;94361.50;5070117;28;20474;-58
2021/12/08 07:49:31;;;;;;;12.30;8.00;;;2.70;97.00;;;2.43;68.79;94357.97;5071178;28;20465;-58
2021/12/08 07:52:01;;;;;;;13.00;8.20;;;2.70;96.90;;;2.44;68.75;94369.19;5071184;28;20474;-58
2021/12/08 07:54:31;;;;;;;16.10;9.33;;;2.70;96.70;;;2.43;69.61;94367.50;5071340;28;20443;-57
2021/12/08 07:56:59;;;;;;;15.27;9.57;;;2.70;97.00;;;2.41;69.57;94372.81;5071539;28;20475;-58
2021/12/08 07:59:28;;;;;;;16.50;9.57;;;2.70;96.80;;;2.42;68.75;94371.88;5069352;28;20490;-58
2021/12/08 08:01:58;;;;;;;16.30;9.30;;;2.70;96.70;;;2.44;68.61;94372.59;5070532;28;20578;-58
2021/12/08 08:04:27;;;;;;;16.90;8.70;;;2.70;96.70;;;2.47;69.13;94387.97;5069315;28;20486;-59
2021/12/08 08:06:56;;;;;;;17.23;10.70;;;2.80;96.80;;;2.50;68.99;94384.34;5071029;28;20536;-57
2021/12/08 08:09:25;;;;;;;13.90;8.73;;;2.80;96.70;;;2.52;67.99;94392.84;5068561;28;20454;-58
2021/12/08 08:11:57;;;;;;;15.67;8.77;;;2.80;96.20;;;2.53;69.51;94396.28;5065082;28;20463;-58
2021/12/08 08:14:24;;;;;;;16.53;10.20;;;2.80;96.40;;;2.55;68.70;94386.63;5070056;28;20974;-58
2021/12/08 08:16:56;;;;;;;19.93;9.30;;;2.90;96.60;;;2.55;68.97;94402.19;5071763;28;20467;-58
2021/12/08 08:19:28;;;;;;;14.80;9.60;;;2.90;96.50;;;2.57;68.79;94395.97;5071065;28;20832;-58
2021/12/08 08:21:58;;;;;;;16.30;8.60;;;2.90;96.50;;;2.59;68.90;94393.28;5071611;28;20504;-59
2021/12/08 08:24:25;;;;;;;19.13;10.33;;;2.90;96.50;;;2.62;68.47;94398.28;5069175;28;20451;-58
2021/12/08 08:26:54;;;;;;;14.30;9.20;;;2.90;96.40;;;2.66;69.16;94384.94;5069088;28;21028;-58
2021/12/08 08:29:21;;;;;;;30.60;15.80;;;2.90;96.50;;;2.69;69.25;94394.31;5070935;28;20454;-58
2021/12/08 08:31:59;;;;;;;32.60;12.57;;;2.90;96.40;;;2.69;69.04;94387.34;5070076;28;20477;-57
2021/12/08 08:34:27;;;;;;;15.47;9.70;;;3.00;96.40;;;2.70;67.79;94395.97;5069968;28;20446;-57
2021/12/08 08:36:55;;;;;;;17.13;9.97;;;3.00;96.10;;;2.68;67.50;94393.47;5069564;28;20475;-57
2021/12/08 08:39:24;;;;;;;15.07;8.97;;;3.00;95.90;;;2.71;68.70;94396.78;5070750;28;20483;-57
2021/12/08 08:41:59;;;;;;;12.60;9.57;;;3.00;96.10;;;2.73;68.32;94398.38;5069784;28;20463;-57
2021/12/08 08:44:37;;;;;;;14.87;9.17;;;3.00;96.10;;;2.76;68.01;94399.91;5070702;28;20530;-58
2021/12/08 08:47:09;;;;;;;13.00;9.70;;;3.00;95.80;;;2.77;68.61;94396.38;5070062;28;21087;-58
2021/12/08 08:49:36;;;;;;;16.60;10.00;;;3.10;95.90;;;2.78;67.72;94392.84;5070116;28;20989;-56
2021/12/08 08:52:08;;;;;;;17.20;10.67;;;3.10;96.30;;;2.82;67.76;94395.16;5068977;28;20494;-58
2021/12/08 08:54:38;;;;;;;16.73;9.70;;;3.10;95.90;;;2.84;68.71;94387.25;5068924;28;21114;-57
2021/12/08 08:57:09;;;;;;;19.60;9.57;;;3.10;95.90;;;2.86;68.40;94386.19;5069530;28;20474;-58
2021/12/08 08:59:42;;;;;;;14.20;9.80;;;3.20;95.80;;;2.91;68.18;94390.25;5068789;28;20501;-58
2021/12/08 09:02:12;;;;;;;22.43;10.60;;;3.20;95.80;;;2.93;67.89;94384.03;5065755;28;20463;-59
2021/12/08 09:04:42;;;;;;;15.00;9.73;;;3.20;95.80;;;2.96;68.27;94381.22;5065446;28;20463;-57
2021/12/08 09:07:12;;;;;;;15.90;10.13;;;3.20;95.80;;;2.96;67.88;94381.22;5067792;28;20470;-58
2021/12/08 09:09:42;;;;;;;12.20;9.07;;;3.30;95.60;;;2.94;67.00;94379.66;5068654;28;21018;-56
2021/12/08 09:12:12;;;;;;;14.73;10.10;;;3.20;95.50;;;2.92;67.43;94376.34;5067660;28;20463;-58
2021/12/08 09:14:42;;;;;;;15.90;9.43;;;3.20;95.50;;;2.93;67.43;94380.56;5068994;28;20439;-58
2021/12/08 09:17:14;;;;;;;16.10;10.43;;;3.20;95.50;;;2.95;67.72;94368.34;5067151;28;20468;-59
2021/12/08 09:19:46;;;;;;;12.30;9.33;;;3.20;95.70;;;2.99;67.26;94367.16;5069671;28;20556;-59
2021/12/08 09:22:18;;;;;;;15.53;9.80;;;3.20;95.60;;;3.02;67.47;94356.56;5068673;28;20470;-58
2021/12/08 09:24:48;;;;;;;13.17;8.80;;;3.30;95.70;;;3.07;67.11;94356.22;5069665;28;20971;-57
2021/12/08 09:27:18;;;;;;;19.60;9.97;;;3.30;95.40;;;3.09;67.79;94365.59;5069075;28;20482;-61
2021/12/08 09:29:48;;;;;;;13.40;9.40;;;3.30;95.50;;;3.13;67.69;94350.59;5066887;28;20792;-58
2021/12/08 09:32:20;;;;;;;12.73;8.83;;;3.40;95.60;;;3.19;67.77;94343.25;5068818;28;20536;-58
2021/12/08 09:34:55;;;;;;;18.33;11.27;;;3.50;95.50;;;3.25;67.02;94343.72;5067706;28;20457;-57
2021/12/08 09:37:24;;;;;;;12.97;9.63;;;3.50;95.20;;;3.29;67.08;94345.19;5068641;28;20535;-58
2021/12/08 09:39:54;;;;;;;16.33;9.90;;;3.60;95.50;;;3.35;67.05;94340.38;5068975;28;20536;-58
2021/12/08 09:42:25;;;;;;;11.67;7.73;;;3.60;95.60;;;3.42;67.31;94343.34;5068984;28;20481;-58
2021/12/08 09:44:54;;;;;;;12.43;9.10;;;3.70;95.70;;;3.50;67.35;94340.19;5067282;28;20443;-59
2021/12/08 09:47:28;;;;;;;13.60;8.60;;;3.70;95.40;;;3.57;67.19;94338.84;5068930;28;21003;-57
2021/12/08 09:49:57;;;;;;;14.13;9.43;;;3.80;95.30;;;3.63;66.83;94334.97;5066051;28;20442;-59
2021/12/08 09:52:27;;;;;;;13.50;8.83;;;3.90;95.10;;;3.68;66.46;94336.28;5068181;28;20907;-56
2021/12/08 09:54:54;;;;;;;12.47;9.03;;;3.90;94.90;;;3.74;66.59;94332.41;5067968;28;20455;-57
2021/12/08 09:57:21;;;;;;;16.90;10.27;;;4.00;95.00;;;3.78;66.79;94333.84;5067249;28;20533;-59
2021/12/08 09:59:49;;;;;;;16.63;9.43;;;4.00;95.00;;;3.82;66.18;94337.06;5068450;28;20498;-59
2021/12/08 10:02:25;;;;;;;15.87;9.90;;;4.10;94.60;;;3.85;65.08;94339.44;5067498;28;21025;-58
2021/12/08 10:04:55;;;;;;;16.17;10.13;;;4.10;94.20;;;3.87;66.62;94330.59;5069279;28;20434;-58
2021/12/08 10:07:22;;;;;;;13.53;9.70;;;4.10;94.70;;;3.90;65.79;94335.56;5067813;28;20471;-58
2021/12/08 10:09:50;;;;;;;13.57;9.80;;;4.10;94.30;;;3.94;65.78;94336.16;5068516;28;20484;-59
2021/12/08 10:12:17;;;;;;;17.53;9.43;;;4.20;94.50;;;3.99;65.96;94338.41;5068932;28;20964;-59
2021/12/08 10:14:46;;;;;;;14.67;8.60;;;4.20;94.80;;;4.03;65.57;94339.84;5068252;28;20439;-58
2021/12/08 10:17:14;;;;;;;13.50;9.10;;;4.30;94.20;;;4.06;65.33;94350.00;5068742;28;20483;-59
2021/12/08 10:19:41;;;;;;;13.23;8.70;;;4.30;94.10;;;4.07;65.41;94341.28;5068877;28;20585;-58
2021/12/08 10:22:19;;;;;;;14.50;9.80;;;4.30;94.10;;;4.10;65.74;94341.88;5068840;28;20532;-57
2021/12/08 10:25:03;;;;;;;14.97;9.07;;;4.30;94.10;;;4.11;65.65;94340.94;5068367;28;20450;-59
2021/12/08 10:27:30;;;;;;;20.30;8.90;;;4.40;94.30;;;4.14;65.95;94334.69;5067981;28;20866;-58
2021/12/08 10:30:22;;;;;;;15.97;10.50;;;4.40;94.30;;;4.19;65.65;94334.34;5068568;28;20963;-59
2021/12/08 10:32:50;;;;;;;12.83;9.10;;;4.40;94.30;;;4.22;65.25;94331.50;5065153;28;20447;-57
2021/12/08 10:35:45;;;;;;;12.87;8.37;;;4.50;94.10;;;4.23;65.27;94328.78;5068942;28;20462;-59
2021/12/08 10:38:16;;;;;;;9.53;7.73;;;4.50;93.90;;;4.22;65.07;94324.53;5069038;28;20526;-58
2021/12/08 10:41:04;;;;;;;13.37;8.97;;;4.50;93.80;;;4.24;64.81;94321.81;5068414;28;20487;-58
2021/12/08 10:43:31;;;;;;;11.93;8.90;;;4.50;93.50;;;4.25;65.04;94323.47;5067433;28;20451;-59
2021/12/08 10:46:05;;;;;;;15.20;9.53;;;4.50;93.70;;;4.26;65.20;94320.75;5068793;28;20467;-59
2021/12/08 10:48:39;;;;;;;17.93;10.10;;;4.50;93.60;;;4.28;65.33;94320.63;5072426;28;20507;-59
2021/12/08 10:54:26;;;;;;;12.53;8.80;;;4.50;93.50;;;4.35;65.01;94323.59;5071728;28;20446;-59
2021/12/08 10:56:56;;;;;;;15.27;9.77;;;4.60;93.70;;;4.38;65.23;94318.16;5072277;28;20474;-59
2021/12/08 10:59:25;;;;;;;12.97;9.43;;;4.60;93.80;;;4.33;64.80;94321.09;5069544;28;20478;-57
2021/12/08 11:01:54;;;;;;;15.77;9.73;;;4.60;93.50;;;4.30;64.71;94322.16;5072175;28;20506;-58
2021/12/08 11:04:29;;;;;;;16.20;10.57;;;4.60;93.90;;;4.27;64.40;94319.78;5074092;28;20512;-58
2021/12/08 11:07:05;;;;;;;13.40;8.77;;;4.50;93.20;;;4.21;64.29;94317.66;5070552;28;20888;-58